createdAt,value
2017-06-30T00:02:15.258Z,20.20
2017-06-30T00:04:43.343Z,20.20
2017-06-30T00:07:11.380Z,20.30
2017-06-30T00:09:40.202Z,20.20
2017-06-30T00:12:08.292Z,20.10
2017-06-30T00:14:39.924Z,20.10
2017-06-30T00:17:07.982Z,20.10
2017-06-30T00:19:36.047Z,20.20
2017-06-30T00:22:04.118Z,20.10
2017-06-30T00:24:32.190Z,20.10
2017-06-30T00:27:00.243Z,20.10
2017-06-30T00:29:28.291Z,20.10
2017-06-30T00:31:57.127Z,20.20
2017-06-30T00:34:25.183Z,20.20
2017-06-30T00:36:53.254Z,20.20
2017-06-30T00:39:21.310Z,20.20
2017-06-30T00:41:49.395Z,20.20
2017-06-30T00:44:17.451Z,20.20
2017-06-30T00:46:45.506Z,20.20
2017-06-30T00:49:14.375Z,20.20
2017-06-30T00:51:42.410Z,20.20
2017-06-30T00:54:10.505Z,20.20
2017-06-30T00:56:38.582Z,20.20
2017-06-30T00:59:06.651Z,20.20
2017-06-30T01:01:34.723Z,20.10
2017-06-30T01:04:02.781Z,20.00
2017-06-30T01:06:30.839Z,19.90
2017-06-30T01:08:58.906Z,19.90
2017-06-30T01:11:26.955Z,19.90
2017-06-30T01:13:55.022Z,19.90
2017-06-30T01:16:23.851Z,19.70
2017-06-30T01:18:51.919Z,19.70
2017-06-30T01:21:19.998Z,19.80
2017-06-30T01:23:48.071Z,19.70
2017-06-30T01:26:16.135Z,19.80
2017-06-30T01:28:44.191Z,19.80
2017-06-30T01:31:12.250Z,19.70
2017-06-30T01:33:40.302Z,19.80
2017-06-30T01:36:09.156Z,19.50
2017-06-30T01:38:37.216Z,19.50
2017-06-30T01:41:05.274Z,19.40
2017-06-30T01:43:33.390Z,19.40
2017-06-30T01:46:01.439Z,19.20
2017-06-30T01:48:29.506Z,19.30
2017-06-30T01:50:57.569Z,19.30
2017-06-30T01:53:25.631Z,19.40
2017-06-30T01:55:53.702Z,19.40
2017-06-30T01:58:21.760Z,19.30
2017-06-30T02:00:49.854Z,19.10
2017-06-30T02:03:17.922Z,19.00
2017-06-30T02:05:45.955Z,19.10
2017-06-30T02:08:14.794Z,19.20
2017-06-30T02:10:42.854Z,19.20
2017-06-30T02:13:10.934Z,19.20
2017-06-30T02:15:38.996Z,19.20
2017-06-30T02:18:07.813Z,19.40
2017-06-30T02:20:35.883Z,19.30
2017-06-30T02:23:03.950Z,19.30
2017-06-30T02:25:31.998Z,19.30
2017-06-30T02:28:00.834Z,19.40
2017-06-30T02:30:28.885Z,19.30
2017-06-30T02:32:56.974Z,19.40
2017-06-30T02:35:25.090Z,19.50
2017-06-30T02:37:53.146Z,19.50
2017-06-30T02:40:21.207Z,19.50
2017-06-30T02:42:49.286Z,19.50
2017-06-30T02:45:17.370Z,19.60
2017-06-30T02:47:45.443Z,19.60
2017-06-30T02:50:13.502Z,19.60
2017-06-30T02:52:41.570Z,19.60
2017-06-30T02:55:09.626Z,19.70
2017-06-30T02:57:37.691Z,19.70
2017-06-30T03:00:05.759Z,19.70
2017-06-30T03:02:33.863Z,19.80
2017-06-30T03:05:01.896Z,19.80
2017-06-30T03:07:29.951Z,19.90
2017-06-30T03:09:58.019Z,19.90
2017-06-30T03:12:26.093Z,19.80
2017-06-30T03:14:54.145Z,19.90
2017-06-30T03:17:22.204Z,19.80
2017-06-30T03:19:50.271Z,19.70
2017-06-30T03:22:18.334Z,19.70
2017-06-30T03:24:46.403Z,19.60
2017-06-30T03:27:14.491Z,19.40
2017-06-30T03:29:42.555Z,19.30
2017-06-30T03:32:10.635Z,19.10
2017-06-30T03:34:38.703Z,19.10
2017-06-30T03:37:06.775Z,19.10
2017-06-30T03:39:34.822Z,19.20
2017-06-30T03:42:02.887Z,19.20
2017-06-30T03:44:30.946Z,19.20
2017-06-30T03:46:59.006Z,19.40
2017-06-30T03:49:27.065Z,19.40
2017-06-30T03:51:55.122Z,19.50
2017-06-30T03:54:23.974Z,19.60
2017-06-30T03:56:52.033Z,19.60
2017-06-30T03:59:20.090Z,19.60
2017-06-30T04:01:48.175Z,19.70
2017-06-30T04:04:16.232Z,19.70
2017-06-30T04:06:44.287Z,19.60
2017-06-30T04:09:12.358Z,19.60
2017-06-30T04:11:40.442Z,19.60
2017-06-30T04:14:08.503Z,19.40
2017-06-30T04:16:36.565Z,19.20
2017-06-30T04:19:05.414Z,19.20
2017-06-30T04:21:33.466Z,19.10
2017-06-30T04:24:01.546Z,19.10
2017-06-30T04:26:29.610Z,19.10
2017-06-30T04:28:57.678Z,19.00
2017-06-30T04:31:25.762Z,18.90
2017-06-30T04:33:53.823Z,18.70
2017-06-30T04:36:21.911Z,18.60
2017-06-30T04:38:49.975Z,18.70
2017-06-30T04:41:18.077Z,18.80
2017-06-30T04:43:46.143Z,18.70
2017-06-30T04:46:14.202Z,18.60
2017-06-30T04:48:42.287Z,18.60
2017-06-30T04:51:10.358Z,18.70
2017-06-30T04:53:39.214Z,18.70
2017-06-30T04:56:07.267Z,18.60
2017-06-30T04:58:35.330Z,18.70
2017-06-30T05:01:03.399Z,18.70
2017-06-30T05:03:31.494Z,18.70
2017-06-30T05:05:59.554Z,18.80
2017-06-30T05:08:27.616Z,18.90
2017-06-30T05:10:55.695Z,18.90
2017-06-30T05:13:23.761Z,18.70
2017-06-30T05:15:51.815Z,18.70
2017-06-30T05:18:19.900Z,18.90
2017-06-30T05:20:47.958Z,18.90
2017-06-30T05:23:16.012Z,18.90
2017-06-30T05:25:44.855Z,19.00
2017-06-30T05:28:12.922Z,18.90
2017-06-30T05:30:40.974Z,19.00
2017-06-30T05:33:09.068Z,18.90
2017-06-30T05:35:37.123Z,18.90
2017-06-30T05:38:05.182Z,18.80
2017-06-30T05:40:33.244Z,18.60
2017-06-30T05:43:02.090Z,18.90
2017-06-30T05:45:30.141Z,18.80
2017-06-30T05:47:58.222Z,18.90
2017-06-30T05:50:26.283Z,18.90
2017-06-30T05:52:54.358Z,19.00
2017-06-30T05:55:22.422Z,19.00
2017-06-30T05:57:50.490Z,19.00
2017-06-30T06:00:18.571Z,19.10
2017-06-30T06:02:46.636Z,18.80
2017-06-30T06:05:14.683Z,18.40
2017-06-30T06:07:42.756Z,18.20
2017-06-30T06:10:10.820Z,18.10
2017-06-30T06:12:38.914Z,18.10
2017-06-30T06:15:06.966Z,18.00
2017-06-30T06:17:35.029Z,17.80
2017-06-30T06:20:03.886Z,17.20
2017-06-30T06:22:31.996Z,17.20
2017-06-30T06:25:00.798Z,16.90
2017-06-30T06:27:28.872Z,16.90
2017-06-30T06:29:56.962Z,16.80
2017-06-30T06:32:25.018Z,16.80
2017-06-30T06:34:53.101Z,16.70
2017-06-30T06:37:21.156Z,16.80
2017-06-30T06:39:49.239Z,16.90
2017-06-30T06:42:17.295Z,17.00
2017-06-30T06:44:45.367Z,17.10
2017-06-30T06:47:13.431Z,17.10
2017-06-30T06:49:41.597Z,17.10
2017-06-30T06:52:10.398Z,17.30
2017-06-30T06:54:38.479Z,17.20
2017-06-30T06:57:06.543Z,17.40
2017-06-30T06:59:34.601Z,17.50
2017-06-30T07:02:02.684Z,17.60
2017-06-30T07:04:30.742Z,17.70
2017-06-30T07:06:58.822Z,17.90
2017-06-30T07:09:26.909Z,18.00
2017-06-30T07:11:54.968Z,18.20
2017-06-30T07:14:23.051Z,18.30
2017-06-30T07:16:51.110Z,18.40
2017-06-30T07:19:23.749Z,18.50
2017-06-30T07:21:52.570Z,19.20
2017-06-30T07:24:20.626Z,19.20
2017-06-30T07:26:48.710Z,19.50
2017-06-30T07:29:16.774Z,19.70
2017-06-30T07:31:44.838Z,19.70
2017-06-30T07:34:12.911Z,19.60
2017-06-30T07:36:40.986Z,19.50
2017-06-30T07:39:09.059Z,19.60
2017-06-30T07:41:37.114Z,19.70
2017-06-30T07:44:05.183Z,19.60
2017-06-30T07:46:33.249Z,19.40
2017-06-30T07:49:01.304Z,19.50
2017-06-30T07:51:30.144Z,19.70
2017-06-30T07:53:58.199Z,19.60
2017-06-30T07:56:26.283Z,19.70
2017-06-30T07:58:54.342Z,19.90
2017-06-30T08:01:22.407Z,20.10
2017-06-30T08:03:50.504Z,20.20
2017-06-30T08:06:18.559Z,20.20
2017-06-30T08:08:46.614Z,20.30
2017-06-30T08:11:14.682Z,20.30
2017-06-30T08:13:42.756Z,20.30
2017-06-30T08:16:10.823Z,20.40
2017-06-30T08:18:38.898Z,20.40
2017-06-30T08:21:06.963Z,20.20
2017-06-30T08:23:35.777Z,20.10
2017-06-30T08:26:03.843Z,20.10
2017-06-30T08:28:31.913Z,20.00
2017-06-30T08:30:59.974Z,20.10
2017-06-30T08:33:28.046Z,20.20
2017-06-30T08:35:56.113Z,20.10
2017-06-30T08:38:24.159Z,20.20
2017-06-30T08:40:52.994Z,20.30
2017-06-30T08:43:21.079Z,20.30
2017-06-30T08:45:49.127Z,20.40
2017-06-30T08:48:17.213Z,20.60
2017-06-30T08:50:45.258Z,20.80
2017-06-30T08:53:13.313Z,21.00
2017-06-30T08:55:41.391Z,21.00
2017-06-30T08:58:09.451Z,20.70
2017-06-30T09:00:37.529Z,20.70
2017-06-30T09:03:06.355Z,21.20
2017-06-30T09:05:34.410Z,21.10
2017-06-30T09:08:02.468Z,21.30
2017-06-30T09:10:30.549Z,21.30
2017-06-30T09:12:58.595Z,21.40
2017-06-30T09:15:26.691Z,21.20
2017-06-30T09:17:54.771Z,21.60
2017-06-30T09:20:22.843Z,21.90
2017-06-30T09:22:51.678Z,22.50
2017-06-30T09:25:19.782Z,22.50
2017-06-30T09:27:47.837Z,22.90
2017-06-30T09:30:15.944Z,22.90
2017-06-30T09:32:44.002Z,22.80
2017-06-30T09:35:12.062Z,23.40
2017-06-30T09:37:40.115Z,23.80
2017-06-30T09:40:08.194Z,24.30
2017-06-30T09:42:36.279Z,24.30
2017-06-30T09:45:04.356Z,24.20
2017-06-30T09:47:32.415Z,24.00
2017-06-30T09:50:00.502Z,23.70
2017-06-30T09:52:28.567Z,23.40
2017-06-30T09:54:56.618Z,23.90
2017-06-30T09:57:24.709Z,25.30
2017-06-30T09:59:52.781Z,26.50
2017-06-30T10:02:20.827Z,27.30
2017-06-30T10:04:48.895Z,27.00
2017-06-30T10:07:16.979Z,27.40
2017-06-30T10:09:45.036Z,27.20
2017-06-30T10:12:13.133Z,26.50
2017-06-30T10:14:41.198Z,26.30
2017-06-30T10:17:09.246Z,26.70
2017-06-30T10:19:37.357Z,26.70
2017-06-30T10:22:05.399Z,27.10
2017-06-30T10:24:33.464Z,27.40
2017-06-30T10:27:01.548Z,28.30
2017-06-30T10:29:29.618Z,29.10
2017-06-30T10:31:57.658Z,29.70
2017-06-30T10:34:25.737Z,29.30
2017-06-30T10:36:53.829Z,29.70
2017-06-30T10:39:22.635Z,29.60
2017-06-30T10:41:50.718Z,30.00
2017-06-30T10:44:18.850Z,30.60
2017-06-30T10:46:46.926Z,30.90
2017-06-30T10:49:15.002Z,30.90
2017-06-30T10:51:43.529Z,31.10
2017-06-30T10:54:12.346Z,32.20
2017-06-30T10:56:40.417Z,32.10
2017-06-30T10:59:08.492Z,31.50
2017-06-30T11:01:36.581Z,29.40
2017-06-30T11:04:04.692Z,27.90
2017-06-30T11:06:32.755Z,26.20
2017-06-30T11:09:00.831Z,25.20
2017-06-30T11:11:28.890Z,24.50
2017-06-30T11:13:56.938Z,24.30
2017-06-30T11:16:25.005Z,25.30
2017-06-30T11:18:53.076Z,26.00
2017-06-30T11:21:21.130Z,26.10
2017-06-30T11:23:49.242Z,25.80
2017-06-30T11:26:18.066Z,24.40
2017-06-30T11:28:46.136Z,24.30
2017-06-30T11:31:14.223Z,23.90
2017-06-30T11:33:42.289Z,23.60
2017-06-30T11:36:10.360Z,23.00
2017-06-30T11:38:38.431Z,22.40
2017-06-30T11:41:06.495Z,22.10
2017-06-30T11:43:34.559Z,21.80
2017-06-30T11:46:02.643Z,21.50
2017-06-30T11:48:30.713Z,21.20
2017-06-30T11:50:58.771Z,21.10
2017-06-30T11:53:26.855Z,21.20
2017-06-30T11:55:54.947Z,21.60
2017-06-30T11:58:23.003Z,22.10
2017-06-30T12:00:51.062Z,22.70
2017-06-30T12:03:19.138Z,22.90
2017-06-30T12:05:47.199Z,22.80
2017-06-30T12:08:15.271Z,22.70
2017-06-30T12:10:43.346Z,22.50
2017-06-30T12:13:12.235Z,22.40
2017-06-30T12:15:40.333Z,22.10
2017-06-30T12:18:08.387Z,21.90
2017-06-30T12:20:36.469Z,21.70
2017-06-30T12:23:05.300Z,21.70
2017-06-30T12:25:33.407Z,21.60
2017-06-30T12:28:02.239Z,21.70
2017-06-30T12:30:30.309Z,21.60
2017-06-30T12:32:58.376Z,21.80
2017-06-30T12:35:26.473Z,21.90
2017-06-30T12:37:54.531Z,21.90
2017-06-30T12:40:22.596Z,21.90
2017-06-30T12:42:50.666Z,21.80
2017-06-30T12:45:18.761Z,21.80
2017-06-30T12:47:46.819Z,21.80
2017-06-30T12:50:15.670Z,21.70
2017-06-30T12:52:44.496Z,21.80
2017-06-30T12:55:12.575Z,21.80
2017-06-30T12:57:40.643Z,22.00
2017-06-30T13:00:08.706Z,22.30
2017-06-30T13:02:36.791Z,22.60
2017-06-30T13:05:04.842Z,23.10
2017-06-30T13:07:32.912Z,23.40
2017-06-30T13:10:00.978Z,23.80
2017-06-30T13:12:29.088Z,23.90
2017-06-30T13:14:57.149Z,24.00
2017-06-30T13:17:25.225Z,24.40
2017-06-30T13:19:53.292Z,24.50
2017-06-30T13:22:21.359Z,24.70
2017-06-30T13:24:49.419Z,24.60
2017-06-30T13:27:17.477Z,24.30
2017-06-30T13:29:45.550Z,24.40
2017-06-30T13:32:13.665Z,24.50
2017-06-30T13:34:41.736Z,24.30
2017-06-30T13:37:09.789Z,24.30
2017-06-30T13:39:37.853Z,24.20
2017-06-30T13:42:05.923Z,24.30
2017-06-30T13:44:34.011Z,24.30
2017-06-30T13:47:02.087Z,24.20
2017-06-30T13:49:30.152Z,24.00
2017-06-30T13:51:58.231Z,23.80
2017-06-30T13:54:26.294Z,23.40
2017-06-30T13:56:54.378Z,23.30
2017-06-30T13:59:22.438Z,23.30
2017-06-30T14:01:50.524Z,23.20
2017-06-30T14:04:19.342Z,23.00
2017-06-30T14:06:47.397Z,23.00
2017-06-30T14:09:15.474Z,23.10
2017-06-30T14:11:43.551Z,23.10
2017-06-30T14:14:11.642Z,23.00
2017-06-30T14:16:39.724Z,23.00
2017-06-30T14:19:07.779Z,23.10
2017-06-30T14:21:35.948Z,22.90
2017-06-30T14:24:04.875Z,22.80
2017-06-30T14:26:32.989Z,22.70
2017-06-30T14:29:01.014Z,22.60
2017-06-30T14:31:29.132Z,22.60
2017-06-30T14:33:57.934Z,22.40
2017-06-30T14:36:25.995Z,22.40
2017-06-30T14:38:54.115Z,22.50
2017-06-30T14:41:22.203Z,22.20
2017-06-30T14:43:50.275Z,22.20
2017-06-30T14:46:19.146Z,21.90
2017-06-30T14:48:47.203Z,21.90
2017-06-30T14:51:15.264Z,21.90
2017-06-30T14:53:43.342Z,22.10
2017-06-30T14:56:11.420Z,22.40
2017-06-30T14:58:39.503Z,22.60
2017-06-30T15:01:07.582Z,22.80
2017-06-30T15:03:35.686Z,23.00
2017-06-30T15:06:03.725Z,23.30
2017-06-30T15:08:31.803Z,23.40
2017-06-30T15:10:59.855Z,23.40
2017-06-30T15:13:27.931Z,23.30
2017-06-30T15:15:55.987Z,23.20
2017-06-30T15:18:24.066Z,23.10
2017-06-30T15:20:52.140Z,23.10
2017-06-30T15:23:20.191Z,23.10
2017-06-30T15:25:48.250Z,23.20
2017-06-30T15:28:17.121Z,23.40
2017-06-30T15:30:45.184Z,23.40
2017-06-30T15:33:13.268Z,23.40
2017-06-30T15:35:41.317Z,23.40
2017-06-30T15:38:09.389Z,23.30
2017-06-30T15:40:37.479Z,23.40
2017-06-30T15:43:05.547Z,23.30
2017-06-30T15:45:33.619Z,23.10
2017-06-30T15:48:01.694Z,23.10
2017-06-30T15:50:30.531Z,23.40
2017-06-30T15:52:58.591Z,23.30
2017-06-30T15:55:26.675Z,23.20
2017-06-30T15:57:54.734Z,23.30
2017-06-30T16:00:22.779Z,23.30
2017-06-30T16:02:51.607Z,23.40
2017-06-30T16:05:19.699Z,23.30
2017-06-30T16:07:47.783Z,23.40
2017-06-30T16:10:15.831Z,23.70
2017-06-30T16:12:43.928Z,24.00
2017-06-30T16:15:11.975Z,24.00
2017-06-30T16:17:40.047Z,24.00
2017-06-30T16:20:08.131Z,23.90
2017-06-30T16:22:36.201Z,23.50
2017-06-30T16:25:04.281Z,23.10
2017-06-30T16:27:32.330Z,22.80
2017-06-30T16:30:00.395Z,22.80
2017-06-30T16:32:28.502Z,23.00
2017-06-30T16:34:56.597Z,22.90
2017-06-30T16:37:25.418Z,23.10
2017-06-30T16:39:53.475Z,23.00
2017-06-30T16:42:21.546Z,23.20
2017-06-30T16:44:49.631Z,23.10
2017-06-30T16:47:17.699Z,23.00
2017-06-30T16:49:45.794Z,23.10
2017-06-30T16:52:13.871Z,23.20
2017-06-30T16:54:41.947Z,23.30
2017-06-30T16:57:11.044Z,23.30
2017-06-30T16:59:39.095Z,23.20
2017-06-30T17:02:07.156Z,23.10
2017-06-30T17:04:35.235Z,23.20
2017-06-30T17:07:03.307Z,23.20
2017-06-30T17:09:31.370Z,23.20
2017-06-30T17:11:59.469Z,23.30
2017-06-30T17:14:27.517Z,23.40
2017-06-30T17:16:55.580Z,23.40
2017-06-30T17:19:23.634Z,23.30
2017-06-30T17:21:51.720Z,23.10
2017-06-30T17:24:19.781Z,23.20
2017-06-30T17:26:47.843Z,23.30
2017-06-30T17:29:15.912Z,23.40
2017-06-30T17:31:43.967Z,23.40
2017-06-30T17:34:12.067Z,23.40
2017-06-30T17:36:40.136Z,23.20
2017-06-30T17:39:08.207Z,23.20
2017-06-30T17:41:36.278Z,23.20
2017-06-30T17:44:04.363Z,23.20
2017-06-30T17:46:32.448Z,23.20
2017-06-30T17:49:00.553Z,23.10
2017-06-30T17:51:29.370Z,22.80
2017-06-30T17:53:57.441Z,22.80
2017-06-30T17:56:25.536Z,22.70
2017-06-30T17:58:53.599Z,22.70
2017-06-30T18:01:21.662Z,22.80
2017-06-30T18:03:49.737Z,22.90
2017-06-30T18:06:17.835Z,22.80
2017-06-30T18:08:45.907Z,22.60
2017-06-30T18:11:13.977Z,22.40
2017-06-30T18:13:42.019Z,22.40
2017-06-30T18:16:10.109Z,22.40
2017-06-30T18:18:38.188Z,22.20
2017-06-30T18:21:06.262Z,22.00
2017-06-30T18:23:34.333Z,22.10
2017-06-30T18:26:02.489Z,22.00
2017-06-30T18:28:31.337Z,22.00
2017-06-30T18:30:59.404Z,22.00
2017-06-30T18:33:27.484Z,21.90
2017-06-30T18:35:55.576Z,22.00
2017-06-30T18:38:23.651Z,22.10
2017-06-30T18:40:51.725Z,22.20
2017-06-30T18:43:19.788Z,22.20
2017-06-30T18:45:47.876Z,22.30
2017-06-30T18:48:16.715Z,22.30
2017-06-30T18:50:44.790Z,22.30
2017-06-30T18:53:12.867Z,22.30
2017-06-30T18:55:40.933Z,22.30
2017-06-30T18:58:08.992Z,22.30
2017-06-30T19:00:37.102Z,22.10
2017-06-30T19:03:05.168Z,21.90
2017-06-30T19:05:33.220Z,21.70
2017-06-30T19:08:01.288Z,21.40
2017-06-30T19:10:29.359Z,21.20
2017-06-30T19:12:57.425Z,20.80
2017-06-30T19:15:25.528Z,20.20
2017-06-30T19:17:53.620Z,19.70
2017-06-30T19:20:22.455Z,19.30
2017-06-30T19:22:50.576Z,19.20
2017-06-30T19:25:19.434Z,19.10
2017-06-30T19:27:47.502Z,19.10
2017-06-30T19:30:15.559Z,19.10
2017-06-30T19:32:43.668Z,18.90
2017-06-30T19:35:11.727Z,18.80
2017-06-30T19:37:39.837Z,18.80
2017-06-30T19:40:07.904Z,18.80
2017-06-30T19:42:35.987Z,18.70
2017-06-30T19:45:04.823Z,18.70
2017-06-30T19:47:32.919Z,18.70
2017-06-30T19:50:01.002Z,18.70
2017-06-30T19:52:29.074Z,18.70
2017-06-30T19:54:57.910Z,18.70
2017-06-30T19:57:26.021Z,18.70
2017-06-30T19:59:54.073Z,18.70
2017-06-30T20:02:22.162Z,18.70
2017-06-30T20:07:24.614Z,18.60
2017-06-30T20:09:52.725Z,18.60
2017-06-30T20:12:20.819Z,18.50
2017-06-30T20:14:49.680Z,18.50
2017-06-30T20:17:17.764Z,18.40
2017-06-30T20:19:45.927Z,18.50
2017-06-30T20:22:14.027Z,18.60
2017-06-30T20:24:42.856Z,18.70
2017-06-30T20:27:10.935Z,18.70
2017-06-30T20:29:39.073Z,18.80
2017-06-30T20:32:07.140Z,19.00
2017-06-30T20:34:35.225Z,19.00
2017-06-30T20:37:03.283Z,19.10
2017-06-30T20:39:31.383Z,19.20
2017-06-30T20:41:59.454Z,19.30
2017-06-30T20:44:27.552Z,19.40
2017-06-30T20:46:55.618Z,19.40
2017-06-30T20:49:23.682Z,19.30
2017-06-30T20:51:51.754Z,19.20
2017-06-30T20:54:19.837Z,19.00
2017-06-30T20:56:47.931Z,19.00
2017-06-30T20:59:16.023Z,18.90
2017-06-30T21:01:44.091Z,18.90
2017-06-30T21:04:12.383Z,18.80
2017-06-30T21:06:40.451Z,18.80
2017-06-30T21:09:08.524Z,18.80
2017-06-30T21:11:36.644Z,18.90
2017-06-30T21:14:04.735Z,18.90
2017-06-30T21:16:33.663Z,18.90
2017-06-30T21:19:01.774Z,18.80
2017-06-30T21:21:29.891Z,18.80
2017-06-30T21:23:57.965Z,18.90
2017-06-30T21:26:26.035Z,19.00
2017-06-30T21:28:54.113Z,19.00
2017-06-30T21:31:22.212Z,19.10
2017-06-30T21:33:50.281Z,19.10
2017-06-30T21:36:18.345Z,19.20
2017-06-30T21:38:46.434Z,19.20
2017-06-30T21:41:14.507Z,19.20
2017-06-30T21:43:42.612Z,19.30
2017-06-30T21:46:11.467Z,19.40
2017-06-30T21:48:39.511Z,19.30
2017-06-30T21:51:07.604Z,19.40
2017-06-30T21:53:35.658Z,19.50
2017-06-30T21:56:03.757Z,19.50
2017-06-30T21:58:31.847Z,19.30
2017-06-30T22:01:00.730Z,18.50
2017-06-30T22:03:28.836Z,18.50
2017-06-30T22:05:56.903Z,18.50
2017-06-30T22:08:24.975Z,18.30
2017-06-30T22:10:53.790Z,18.10
2017-06-30T22:13:21.871Z,18.00
2017-06-30T22:15:49.964Z,18.10
2017-06-30T22:18:18.035Z,18.20
2017-06-30T22:20:46.113Z,18.20
2017-06-30T22:23:14.187Z,18.10
2017-06-30T22:25:43.014Z,18.00
2017-06-30T22:28:11.111Z,17.90
2017-06-30T22:30:39.188Z,17.90
2017-06-30T22:33:07.245Z,17.90
2017-06-30T22:35:35.345Z,17.90
2017-06-30T22:38:03.415Z,17.80
2017-06-30T22:40:31.486Z,17.80
2017-06-30T22:42:59.572Z,17.70
2017-06-30T22:45:27.624Z,17.50
2017-06-30T22:47:55.686Z,17.40
2017-06-30T22:50:23.776Z,17.40
2017-06-30T22:52:51.857Z,17.30
2017-06-30T22:55:19.935Z,17.30
2017-06-30T22:57:48.790Z,17.30
2017-06-30T23:00:16.851Z,17.30
2017-06-30T23:02:44.944Z,17.40
2017-06-30T23:05:13.015Z,17.60
2017-06-30T23:07:41.072Z,17.70
2017-06-30T23:10:09.163Z,17.70
2017-06-30T23:12:37.215Z,17.60
2017-06-30T23:15:05.300Z,17.70
2017-06-30T23:17:33.382Z,17.80
2017-06-30T23:20:01.454Z,17.90
2017-06-30T23:22:29.531Z,18.00
2017-06-30T23:24:57.604Z,18.20
2017-06-30T23:27:26.479Z,18.30
2017-06-30T23:29:55.698Z,18.20
2017-06-30T23:32:24.526Z,18.20
2017-06-30T23:34:52.625Z,18.30
2017-06-30T23:37:20.688Z,18.30
2017-06-30T23:39:48.750Z,18.40
2017-06-30T23:42:16.843Z,18.60
2017-06-30T23:44:44.906Z,18.70
2017-06-30T23:47:12.986Z,18.70
2017-06-30T23:49:41.039Z,18.60
2017-06-30T23:52:09.118Z,18.70
2017-06-30T23:54:37.215Z,18.80
2017-06-30T23:57:05.278Z,18.80
2017-06-30T23:59:33.350Z,18.70
